Time;durP1;ratioP1;P1;durP2;ratioP2;P2;SDS_P1;SDS_P2;PMS_P1;PMS_P2;Temp;Humidity;BMP_temperature;BMP_pressure;BME280_temperature;BME280_humidity;BME280_pressure;Samples;Min_cycle;Max_cycle;Signal;HPM_P1;HPM_P2
2023/01/17 00:01:59;;;;;;;;;;;;;;;;;;5072718;28;1954;-39
2023/01/17 00:10:03;;;;;;;;;;;;;;;;;;5052660;28;1822;-41
2023/01/17 00:12:30;;;;;;;;;;;;;;;;;;5064470;28;1969;-40
2023/01/17 00:14:58;;;;;;;;;;;;;;;;;;5072291;28;1268;-40
2023/01/17 00:17:26;;;;;;;;;;;;;;;;;;5071414;28;1288;-40
2023/01/17 01:35:40;;;;;;;;;;;;;;;;;;5065889;28;1716;-42
2023/01/17 01:38:07;;;;;;;;;;;;;;;;;;5069979;28;1970;-42
2023/01/17 01:40:40;;;;;;;;;;;;;;;;;;5051493;28;1608;-41
2023/01/17 01:43:09;;;;;;;;;;;;;;;;;;5071017;28;1913;-42
2023/01/17 01:45:37;;;;;;;;;;;;;;;;;;5053169;28;1900;-41
2023/01/17 01:48:11;;;;;;;;;;;;;;;;;;5058300;28;2066;-43
2023/01/17 01:50:38;;;;;;;;;;;;;;;;;;5063003;28;2338;-43
2023/01/17 01:53:06;;;;;;;;;;;;;;;;;;5070780;28;1887;-44
2023/01/17 01:55:35;;;;;;;;;;;;;;;;;;5070099;28;1462;-42
2023/01/17 01:58:31;;;;;;;;;;;;;;;;;;5059688;28;2053;-43
2023/01/17 02:01:01;;;;;;;;;;;;;;;;;;5069934;28;1939;-42
2023/01/17 02:03:30;;;;;;;;;;;;;;;;;;5071080;28;2002;-41
2023/01/17 02:06:01;;;;;;;;;;;;;;;;;;5040309;28;2508;-42
2023/01/17 02:08:28;;;;;;;;;;;;;;;;;;5071166;28;1939;-42
2023/01/17 02:10:56;;;;;;;;;;;;;;;;;;5065894;28;1701;-41
2023/01/17 02:13:23;;;;;;;;;;;;;;;;;;5070606;28;1573;-43
2023/01/17 02:16:05;;;;;;;;;;;;;;;;;;5070510;28;1962;-42
2023/01/17 02:18:55;;;;;;;;;;;;;;;;;;5070012;28;1730;-42
2023/01/17 02:21:36;;;;;;;;;;;;;;;;;;5061751;28;2078;-42
2023/01/17 02:24:12;;;;;;;;;;;;;;;;;;5057080;28;2022;-44
2023/01/17 02:26:43;;;;;;;;;;;;;;;;;;5065342;28;2089;-42
2023/01/17 02:29:22;;;;;;;;;;;;;;;;;;5061447;28;2045;-42
2023/01/17 02:31:55;;;;;;;;;;;;;;;;;;5063870;28;1713;-43
2023/01/17 02:34:33;;;;;;;;;;;;;;;;;;5071938;28;1899;-42
2023/01/17 02:37:07;;;;;;;;;;;;;;;;;;5064292;28;2047;-41
2023/01/17 02:39:44;;;;;;;;;;;;;;;;;;5073607;28;1914;-42
2023/01/17 02:42:16;;;;;;;;;;;;;;;;;;5072246;28;2005;-44
2023/01/17 02:44:44;;;;;;;;;;;;;;;;;;5055025;28;1824;-42
2023/01/17 02:47:22;;;;;;;;;;;;;;;;;;5054128;28;1732;-43
2023/01/17 02:49:51;;;;;;;;;;;;;;;;;;5054489;28;1955;-43
2023/01/17 02:52:44;;;;;;;;;;;;;;;;;;5054269;28;1868;-45
2023/01/17 02:55:22;;;;;;;;;;;;;;;;;;5016505;28;1537;-43
2023/01/17 02:58:07;;;;;;;;;;;;;;;;;;5053927;28;1891;-42
2023/01/17 03:00:43;;;;;;;;;;;;;;;;;;5054374;28;2030;-41
2023/01/17 03:03:25;;;;;;;;;;;;;;;;;;5053792;28;1952;-44
2023/01/17 03:05:58;;;;;;;;;;;;;;;;;;5053846;28;1657;-43
2023/01/17 03:08:26;;;;;;;;;;;;;;;;;;5054158;28;1888;-42
2023/01/17 03:10:53;;;;;;;;;;;;;;;;;;5053940;28;1690;-43
2023/01/17 03:13:20;;;;;;;;;;;;;;;;;;5035714;28;2175;-44
2023/01/17 03:15:48;;;;;;;;;;;;;;;;;;5053882;28;1710;-42
2023/01/17 03:18:15;;;;;;;;;;;;;;;;;;5053542;28;1882;-43
2023/01/17 03:20:43;;;;;;;;;;;;;;;;;;5053634;28;2016;-42
2023/01/17 03:23:10;;;;;;;;;;;;;;;;;;5053475;28;1984;-42
2023/01/17 03:25:37;;;;;;;;;;;;;;;;;;5053531;28;2174;-42
2023/01/17 03:28:04;;;;;;;;;;;;;;;;;;5069237;28;1786;-43
2023/01/17 03:30:31;;;;;;;;;;;;;;;;;;5073528;28;1757;-43
2023/01/17 03:32:59;;;;;;;;;;;;;;;;;;5073320;28;1835;-43
2023/01/17 03:35:27;;;;;;;;;;;;;;;;;;5073401;28;1770;-44
2023/01/17 03:37:54;;;;;;;;;;;;;;;;;;5073420;28;2322;-41
2023/01/17 03:40:21;;;;;;;;;;;;;;;;;;5055232;28;1940;-44
2023/01/17 03:42:48;;;;;;;;;;;;;;;;;;5072764;28;2302;-43
2023/01/17 03:45:16;;;;;;;;;;;;;;;;;;5073019;28;2052;-47
2023/01/17 03:47:43;;;;;;;;;;;;;;;;;;5055139;28;2029;-44
2023/01/17 03:50:10;;;;;;;;;;;;;;;;;;5073147;28;2011;-42
2023/01/17 03:52:38;;;;;;;;;;;;;;;;;;5073129;28;1997;-39
2023/01/17 03:55:05;;;;;;;;;;;;;;;;;;5073069;28;2030;-43
2023/01/17 03:57:32;;;;;;;;;;;;;;;;;;5073020;28;1757;-42
2023/01/17 03:59:59;;;;;;;;;;;;;;;;;;5072818;28;1806;-45
2023/01/17 04:02:32;;;;;;;;;;;;;;;;;;5072765;28;1970;-43
2023/01/17 04:04:59;;;;;;;;;;;;;;;;;;5072899;28;1957;-43
2023/01/17 04:07:26;;;;;;;;;;;;;;;;;;5072758;28;1979;-43
2023/01/17 04:09:53;;;;;;;;;;;;;;;;;;5072747;28;1904;-43
2023/01/17 04:12:20;;;;;;;;;;;;;;;;;;5072617;28;1730;-42
2023/01/17 04:14:48;;;;;;;;;;;;;;;;;;5072522;28;2030;-43
2023/01/17 04:17:16;;;;;;;;;;;;;;;;;;5072592;28;2127;-42
2023/01/17 04:19:43;;;;;;;;;;;;;;;;;;5072311;28;2109;-43
2023/01/17 04:22:11;;;;;;;;;;;;;;;;;;5072528;28;2006;-42
2023/01/17 04:24:38;;;;;;;;;;;;;;;;;;5072579;28;1973;-42
2023/01/17 04:27:05;;;;;;;;;;;;;;;;;;5071399;28;1992;-43
2023/01/17 04:29:32;;;;;;;;;;;;;;;;;;5072577;28;1986;-46
2023/01/17 04:32:00;;;;;;;;;;;;;;;;;;5072062;28;1442;-45
2023/01/17 04:34:27;;;;;;;;;;;;;;;;;;5072189;28;2158;-43
2023/01/17 04:36:55;;;;;;;;;;;;;;;;;;5072300;28;1657;-42
2023/01/17 04:39:25;;;;;;;;;;;;;;;;;;5071974;28;1999;-46
2023/01/17 04:41:52;;;;;;;;;;;;;;;;;;5043988;28;1750;-42
2023/01/17 04:44:19;;;;;;;;;;;;;;;;;;5051847;28;1930;-43
2023/01/17 04:46:46;;;;;;;;;;;;;;;;;;5052145;28;2134;-44
2023/01/17 04:49:13;;;;;;;;;;;;;;;;;;5052031;28;1864;-43
2023/01/17 04:51:41;;;;;;;;;;;;;;;;;;5051929;28;1982;-46
2023/01/17 04:54:08;;;;;;;;;;;;;;;;;;5051956;28;2083;-43
2023/01/17 04:56:35;;;;;;;;;;;;;;;;;;5052104;28;1829;-43
2023/01/17 04:59:02;;;;;;;;;;;;;;;;;;5051712;28;2009;-43
2023/01/17 05:01:29;;;;;;;;;;;;;;;;;;5051897;28;1844;-45
2023/01/17 05:03:57;;;;;;;;;;;;;;;;;;5051560;28;1982;-43
2023/01/17 05:06:24;;;;;;;;;;;;;;;;;;5051641;28;2225;-43
2023/01/17 05:08:51;;;;;;;;;;;;;;;;;;5051611;28;1982;-42
2023/01/17 05:11:18;;;;;;;;;;;;;;;;;;5051557;28;2025;-42
2023/01/17 05:13:47;;;;;;;;;;;;;;;;;;5051539;28;1712;-43
2023/01/17 05:16:16;;;;;;;;;;;;;;;;;;5051514;28;1773;-42
2023/01/17 05:18:43;;;;;;;;;;;;;;;;;;5051567;28;1810;-41
2023/01/17 05:21:10;;;;;;;;;;;;;;;;;;5052042;28;1707;-43
2023/01/17 05:23:39;;;;;;;;;;;;;;;;;;5051406;28;1994;-44
2023/01/17 05:26:06;;;;;;;;;;;;;;;;;;5051426;28;1671;-43
2023/01/17 05:28:33;;;;;;;;;;;;;;;;;;5051263;28;1394;-42
2023/01/17 05:31:00;;;;;;;;;;;;;;;;;;5051191;28;1900;-43
2023/01/17 05:33:28;;;;;;;;;;;;;;;;;;5051064;28;2035;-43
2023/01/17 05:35:55;;;;;;;;;;;;;;;;;;5051038;28;1778;-43
2023/01/17 05:38:22;;;;;;;;;;;;;;;;;;5051090;28;2074;-43
2023/01/17 05:40:49;;;;;;;;;;;;;;;;;;5051185;28;1433;-44
2023/01/17 05:43:17;;;;;;;;;;;;;;;;;;5051095;28;2020;-44
2023/01/17 05:45:46;;;;;;;;;;;;;;;;;;5051715;28;2006;-44
2023/01/17 05:48:13;;;;;;;;;;;;;;;;;;5051023;28;2163;-42
2023/01/17 05:50:40;;;;;;;;;;;;;;;;;;5051238;28;1834;-45
2023/01/17 05:53:09;;;;;;;;;;;;;;;;;;5051130;28;1968;-46
2023/01/17 05:55:36;;;;;;;;;;;;;;;;;;5050999;28;2195;-43
2023/01/17 05:58:04;;;;;;;;;;;;;;;;;;5051069;28;1996;-45
2023/01/17 06:00:31;;;;;;;;;;;;;;;;;;5050083;28;1865;-43
2023/01/17 06:02:59;;;;;;;;;;;;;;;;;;5032871;28;2416;-45
2023/01/17 06:05:27;;;;;;;;;;;;;;;;;;5053993;28;2081;-42
2023/01/17 06:07:55;;;;;;;;;;;;;;;;;;5054974;28;2207;-42
2023/01/17 06:10:23;;;;;;;;;;;;;;;;;;5055017;28;2098;-43
2023/01/17 06:12:59;;;;;;;;;;;;;;;;;;5055213;28;2103;-43
2023/01/17 06:15:26;;;;;;;;;;;;;;;;;;5054975;28;1942;-40
2023/01/17 06:17:53;;;;;;;;;;;;;;;;;;5054851;28;1615;-44
2023/01/17 06:20:20;;;;;;;;;;;;;;;;;;5054812;28;2112;-47
2023/01/17 06:22:47;;;;;;;;;;;;;;;;;;5054799;28;2609;-41
2023/01/17 06:25:15;;;;;;;;;;;;;;;;;;5054830;28;2045;-44
2023/01/17 06:27:42;;;;;;;;;;;;;;;;;;5067151;28;2082;-44
2023/01/17 06:30:09;;;;;;;;;;;;;;;;;;5074485;28;1668;-46
2023/01/17 06:32:36;;;;;;;;;;;;;;;;;;5069185;28;1954;-42
2023/01/17 06:35:04;;;;;;;;;;;;;;;;;;5054635;28;1930;-45
2023/01/17 06:37:31;;;;;;;;;;;;;;;;;;5054524;28;1711;-44
2023/01/17 06:39:58;;;;;;;;;;;;;;;;;;5054389;28;1756;-46
2023/01/17 06:42:25;;;;;;;;;;;;;;;;;;5054334;28;1287;-44
2023/01/17 06:44:52;;;;;;;;;;;;;;;;;;5054294;28;2157;-41
2023/01/17 06:47:19;;;;;;;;;;;;;;;;;;5054487;28;1983;-42
2023/01/17 06:49:46;;;;;;;;;;;;;;;;;;5054502;28;1870;-44
2023/01/17 06:52:13;;;;;;;;;;;;;;;;;;5054256;28;1740;-44
2023/01/17 06:54:40;;;;;;;;;;;;;;;;;;5054480;28;1624;-41
2023/01/17 06:57:08;;;;;;;;;;;;;;;;;;5073647;28;1860;-42
2023/01/17 06:59:35;;;;;;;;;;;;;;;;;;5073974;28;1786;-46
2023/01/17 07:02:02;;;;;;;;;;;;;;;;;;5073821;28;2110;-43
2023/01/17 07:04:29;;;;;;;;;;;;;;;;;;5073937;28;1977;-43
2023/01/17 07:06:56;;;;;;;;;;;;;;;;;;5074035;28;1379;-45
2023/01/17 07:09:24;;;;;;;;;;;;;;;;;;5073530;28;2438;-43
2023/01/17 07:11:58;;;;;;;;;;;;;;;;;;5073762;28;1496;-42
2023/01/17 07:14:29;;;;;;;;;;;;;;;;;;5073641;28;1951;-43
2023/01/17 07:16:56;;;;;;;;;;;;;;;;;;5073717;28;1640;-44
2023/01/17 07:19:23;;;;;;;;;;;;;;;;;;5073672;28;1911;-42
2023/01/17 07:21:51;;;;;;;;;;;;;;;;;;5073717;28;1971;-43
2023/01/17 07:24:19;;;;;;;;;;;;;;;;;;5073532;28;1975;-43
2023/01/17 07:26:47;;;;;;;;;;;;;;;;;;5068893;28;2054;-45
2023/01/17 07:29:14;;;;;;;;;;;;;;;;;;5052697;28;1876;-44
2023/01/17 07:31:42;;;;;;;;;;;;;;;;;;5053191;28;2179;-43
2023/01/17 07:34:09;;;;;;;;;;;;;;;;;;5053455;28;2043;-42
2023/01/17 07:36:37;;;;;;;;;;;;;;;;;;5053203;28;1646;-45
2023/01/17 07:39:04;;;;;;;;;;;;;;;;;;5053271;28;1647;-46
2023/01/17 07:41:39;;;;;;;;;;;;;;;;;;5053168;28;1978;-43
2023/01/17 07:44:09;;;;;;;;;;;;;;;;;;5053072;28;2022;-47
2023/01/17 07:46:36;;;;;;;;;;;;;;;;;;5053218;28;1830;-45
2023/01/17 07:49:03;;;;;;;;;;;;;;;;;;5053040;28;2053;-41
2023/01/17 07:51:31;;;;;;;;;;;;;;;;;;5053268;28;1953;-45
2023/01/17 07:53:58;;;;;;;;;;;;;;;;;;5053226;28;2177;-42
2023/01/17 07:56:25;;;;;;;;;;;;;;;;;;5066655;28;2001;-44
2023/01/17 07:58:52;;;;;;;;;;;;;;;;;;5073101;28;1713;-45
2023/01/17 08:01:19;;;;;;;;;;;;;;;;;;5054972;28;2188;-43
2023/01/17 08:03:49;;;;;;;;;;;;;;;;;;5072651;28;2069;-44
2023/01/17 08:06:18;;;;;;;;;;;;;;;;;;5072700;28;1935;-42
2023/01/17 08:08:46;;;;;;;;;;;;;;;;;;5072665;28;2097;-44
2023/01/17 08:11:13;;;;;;;;;;;;;;;;;;5072740;28;2202;-43
2023/01/17 08:13:40;;;;;;;;;;;;;;;;;;5072579;28;1901;-41
2023/01/17 08:16:11;;;;;;;;;;;;;;;;;;5072951;28;1808;-48
2023/01/17 08:18:38;;;;;;;;;;;;;;;;;;5072551;28;1669;-41
2023/01/17 08:21:15;;;;;;;;;;;;;;;;;;5072447;28;2297;-43
2023/01/17 08:23:46;;;;;;;;;;;;;;;;;;5072659;28;1910;-45
2023/01/17 08:26:20;;;;;;;;;;;;;;;;;;5072056;28;1682;-42
2023/01/17 08:28:48;;;;;;;;;;;;;;;;;;5051632;28;1870;-40
2023/01/17 08:31:16;;;;;;;;;;;;;;;;;;5052261;28;2020;-43
2023/01/17 08:33:43;;;;;;;;;;;;;;;;;;5052342;28;1860;-42
2023/01/17 08:36:10;;;;;;;;;;;;;;;;;;5052146;28;1614;-44
2023/01/17 08:38:37;;;;;;;;;;;;;;;;;;5052074;28;2003;-43
2023/01/17 08:41:04;;;;;;;;;;;;;;;;;;5051905;28;1877;-46
2023/01/17 08:43:32;;;;;;;;;;;;;;;;;;5051827;28;1952;-44
2023/01/17 08:45:59;;;;;;;;;;;;;;;;;;5052076;28;1734;-42
2023/01/17 08:48:27;;;;;;;;;;;;;;;;;;5052078;28;1814;-43
2023/01/17 08:50:54;;;;;;;;;;;;;;;;;;5052043;28;1981;-43
2023/01/17 08:53:22;;;;;;;;;;;;;;;;;;5052002;28;1861;-46
2023/01/17 08:55:55;;;;;;;;;;;;;;;;;;5051773;28;1275;-42
2023/01/17 08:58:22;;;;;;;;;;;;;;;;;;5051940;28;1877;-44
2023/01/17 09:00:50;;;;;;;;;;;;;;;;;;5051753;28;1803;-43
2023/01/17 09:03:17;;;;;;;;;;;;;;;;;;5051599;28;2076;-46
2023/01/17 09:05:44;;;;;;;;;;;;;;;;;;5050564;28;1910;-43
2023/01/17 09:08:12;;;;;;;;;;;;;;;;;;5033760;28;1323;-44
2023/01/17 09:10:39;;;;;;;;;;;;;;;;;;5051454;28;1834;-46
2023/01/17 09:13:06;;;;;;;;;;;;;;;;;;5051474;28;2024;-43
2023/01/17 09:15:33;;;;;;;;;;;;;;;;;;5051443;28;1759;-44
2023/01/17 09:18:00;;;;;;;;;;;;;;;;;;5051475;28;1858;-47
2023/01/17 09:20:29;;;;;;;;;;;;;;;;;;5051691;28;1702;-44
2023/01/17 09:22:56;;;;;;;;;;;;;;;;;;5051342;28;1767;-44
2023/01/17 09:25:23;;;;;;;;;;;;;;;;;;5051824;28;2396;-43
2023/01/17 09:27:51;;;;;;;;;;;;;;;;;;5065006;28;2107;-43
2023/01/17 09:30:18;;;;;;;;;;;;;;;;;;5071260;28;1912;-43
2023/01/17 09:32:50;;;;;;;;;;;;;;;;;;5071233;28;2466;-45
2023/01/17 09:35:18;;;;;;;;;;;;;;;;;;5070772;28;2105;-44
2023/01/17 09:37:47;;;;;;;;;;;;;;;;;;5070340;28;1949;-45
2023/01/17 09:40:19;;;;;;;;;;;;;;;;;;5070243;28;1892;-42
2023/01/17 09:42:49;;;;;;;;;;;;;;;;;;5052868;28;2145;-45
2023/01/17 09:45:17;;;;;;;;;;;;;;;;;;5070916;28;1911;-46
2023/01/17 09:47:45;;;;;;;;;;;;;;;;;;5070800;28;1492;-42
2023/01/17 09:50:19;;;;;;;;;;;;;;;;;;5070965;28;1610;-47
2023/01/17 09:52:46;;;;;;;;;;;;;;;;;;5070921;28;1720;-43
2023/01/17 09:55:14;;;;;;;;;;;;;;;;;;5071067;28;1949;-43
2023/01/17 09:57:54;;;;;;;;;;;;;;;;;;5071135;28;1634;-45
2023/01/17 10:00:21;;;;;;;;;;;;;;;;;;5070827;28;2049;-43
2023/01/17 10:03:00;;;;;;;;;;;;;;;;;;5071035;28;1861;-44
2023/01/17 10:05:36;;;;;;;;;;;;;;;;;;5071031;28;1969;-45
2023/01/17 10:08:18;;;;;;;;;;;;;;;;;;5070791;28;1799;-44
2023/01/17 10:11:00;;;;;;;;;;;;;;;;;;5070764;28;1705;-46
2023/01/17 10:13:46;;;;;;;;;;;;;;;;;;5070897;28;1817;-45
2023/01/17 10:16:25;;;;;;;;;;;;;;;;;;5070658;28;1951;-44
2023/01/17 10:18:55;;;;;;;;;;;;;;;;;;5069182;28;1708;-44
2023/01/17 10:21:25;;;;;;;;;;;;;;;;;;5051642;28;1740;-43
2023/01/17 10:24:12;;;;;;;;;;;;;;;;;;5069348;28;1931;-44
2023/01/17 10:26:40;;;;;;;;;;;;;;;;;;5066778;28;1892;-46
2023/01/17 10:29:12;;;;;;;;;;;;;;;;;;5055580;28;1666;-43
2023/01/17 10:31:43;;;;;;;;;;;;;;;;;;5050439;28;1759;-41
2023/01/17 10:34:18;;;;;;;;;;;;;;;;;;5050579;28;2043;-42
2023/01/17 10:36:51;;;;;;;;;;;;;;;;;;5063366;28;1726;-42
2023/01/17 10:39:19;;;;;;;;;;;;;;;;;;5070668;28;1838;-44
2023/01/17 10:41:54;;;;;;;;;;;;;;;;;;5070414;28;1963;-44
2023/01/17 10:44:47;;;;;;;;;;;;;;;;;;5067489;28;2133;-41
2023/01/17 10:47:18;;;;;;;;;;;;;;;;;;5040000;28;2133;-44
2023/01/17 10:49:53;;;;;;;;;;;;;;;;;;5070843;28;2105;-45
2023/01/17 10:52:32;;;;;;;;;;;;;;;;;;5074098;28;1474;-42
2023/01/17 10:55:20;;;;;;;;;;;;;;;;;;5074346;28;2089;-42
2023/01/17 10:57:48;;;;;;;;;;;;;;;;;;5073928;28;2150;-44
2023/01/17 11:00:21;;;;;;;;;;;;;;;;;;5074073;28;1707;-42
2023/01/17 11:02:49;;;;;;;;;;;;;;;;;;5073920;28;2307;-45
2023/01/17 11:05:21;;;;;;;;;;;;;;;;;;5073980;28;1981;-45
2023/01/17 11:07:58;;;;;;;;;;;;;;;;;;5073983;28;2358;-46
2023/01/17 11:10:40;;;;;;;;;;;;;;;;;;5074315;28;2095;-43
2023/01/17 11:13:23;;;;;;;;;;;;;;;;;;5073717;28;1858;-45
2023/01/17 11:16:16;;;;;;;;;;;;;;;;;;5073765;28;2005;-45
2023/01/17 11:18:44;;;;;;;;;;;;;;;;;;5070489;28;1954;-42
2023/01/17 11:21:15;;;;;;;;;;;;;;;;;;5073375;28;1707;-42
2023/01/17 11:23:46;;;;;;;;;;;;;;;;;;5055410;28;2032;-44
2023/01/17 11:26:23;;;;;;;;;;;;;;;;;;5073138;28;1993;-45
2023/01/17 11:28:53;;;;;;;;;;;;;;;;;;5035718;28;2040;-43
2023/01/17 11:31:24;;;;;;;;;;;;;;;;;;5053247;28;2132;-43
2023/01/17 11:34:06;;;;;;;;;;;;;;;;;;5053272;28;1823;-43
2023/01/17 11:36:33;;;;;;;;;;;;;;;;;;5058478;28;1651;-43
2023/01/17 11:39:05;;;;;;;;;;;;;;;;;;5072134;28;1903;-42
2023/01/17 11:41:34;;;;;;;;;;;;;;;;;;5073322;28;2119;-40
2023/01/17 11:44:03;;;;;;;;;;;;;;;;;;5073352;28;1919;-43
2023/01/17 11:46:31;;;;;;;;;;;;;;;;;;5072254;28;1988;-39
2023/01/17 11:48:59;;;;;;;;;;;;;;;;;;5053076;28;1618;-38
2023/01/17 11:51:29;;;;;;;;;;;;;;;;;;5052930;28;1654;-40
2023/01/17 11:54:09;;;;;;;;;;;;;;;;;;5052858;28;2029;-42
2023/01/17 11:56:36;;;;;;;;;;;;;;;;;;5052473;28;2379;-40
2023/01/17 11:59:12;;;;;;;;;;;;;;;;;;5052957;28;2000;-46
2023/01/17 12:02:00;;;;;;;;;;;;;;;;;;5051790;28;1746;-44
2023/01/17 12:04:35;;;;;;;;;;;;;;;;;;5052560;28;2004;-42
2023/01/17 12:07:21;;;;;;;;;;;;;;;;;;5052510;28;1991;-44
2023/01/17 12:10:08;;;;;;;;;;;;;;;;;;5052596;28;1875;-42
2023/01/17 12:15:30;;;;;;;;;;;;;;;;;;5052514;28;1731;-40
2023/01/17 12:18:17;;;;;;;;;;;;;;;;;;5052238;28;1578;-43
2023/01/17 12:20:54;;;;;;;;;;;;;;;;;;5052302;28;1839;-41
2023/01/17 12:23:34;;;;;;;;;;;;;;;;;;5052316;28;2229;-39
2023/01/17 12:26:19;;;;;;;;;;;;;;;;;;5051797;28;2046;-39
2023/01/17 12:28:46;;;;;;;;;;;;;;;;;;5052079;28;1806;-41
2023/01/17 12:31:39;;;;;;;;;;;;;;;;;;5052384;28;1846;-44
2023/01/17 12:34:13;;;;;;;;;;;;;;;;;;5049812;28;1803;-42
2023/01/17 12:36:53;;;;;;;;;;;;;;;;;;5056425;28;1696;-40
2023/01/17 12:39:24;;;;;;;;;;;;;;;;;;5071970;28;1715;-43
2023/01/17 12:42:01;;;;;;;;;;;;;;;;;;5071828;28;2043;-42
2023/01/17 12:44:51;;;;;;;;;;;;;;;;;;5070414;28;1910;-44
2023/01/17 12:47:19;;;;;;;;;;;;;;;;;;5058363;28;1735;-43
2023/01/17 12:50:05;;;;;;;;;;;;;;;;;;5072070;28;2227;-43
2023/01/17 12:52:52;;;;;;;;;;;;;;;;;;5057882;28;1879;-43
2023/01/17 12:55:32;;;;;;;;;;;;;;;;;;5051158;28;1888;-42
2023/01/17 12:58:01;;;;;;;;;;;;;;;;;;5051897;28;2080;-43
2023/01/17 13:00:30;;;;;;;;;;;;;;;;;;5052210;28;2004;-41
2023/01/17 13:03:03;;;;;;;;;;;;;;;;;;5067112;28;1709;-43
2023/01/17 13:05:34;;;;;;;;;;;;;;;;;;5071621;28;1921;-44
2023/01/17 13:08:22;;;;;;;;;;;;;;;;;;5071415;28;1888;-40
2023/01/17 13:10:56;;;;;;;;;;;;;;;;;;5071281;28;1939;-43
2023/01/17 13:13:28;;;;;;;;;;;;;;;;;;5071379;28;1833;-42
2023/01/17 13:15:55;;;;;;;;;;;;;;;;;;5071593;28;2127;-45
2023/01/17 13:18:28;;;;;;;;;;;;;;;;;;5071339;28;1993;-42
2023/01/17 13:21:03;;;;;;;;;;;;;;;;;;5071331;28;1779;-42
2023/01/17 13:23:49;;;;;;;;;;;;;;;;;;5071651;28;1819;-44
2023/01/17 13:26:27;;;;;;;;;;;;;;;;;;5070370;28;2131;-44
2023/01/17 13:29:03;;;;;;;;;;;;;;;;;;5051307;28;1749;-43
2023/01/17 13:31:57;;;;;;;;;;;;;;;;;;5051451;28;1857;-46
2023/01/17 13:34:34;;;;;;;;;;;;;;;;;;5021216;28;1467;-43
2023/01/17 13:37:15;;;;;;;;;;;;;;;;;;5051107;28;1945;-42
2023/01/17 13:40:01;;;;;;;;;;;;;;;;;;5051426;28;2164;-43
2023/01/17 13:42:31;;;;;;;;;;;;;;;;;;5050908;28;1496;-42
2023/01/17 13:44:58;;;;;;;;;;;;;;;;;;5051025;28;1928;-42
2023/01/17 13:47:26;;;;;;;;;;;;;;;;;;5051025;28;2211;-45
2023/01/17 13:49:55;;;;;;;;;;;;;;;;;;5051071;28;1976;-43
2023/01/17 13:52:22;;;;;;;;;;;;;;;;;;5051302;28;1858;-43
2023/01/17 13:54:50;;;;;;;;;;;;;;;;;;5051419;28;2078;-43
2023/01/17 13:57:38;;;;;;;;;;;;;;;;;;5050956;28;2018;-43
2023/01/17 14:00:15;;;;;;;;;;;;;;;;;;5033159;28;1967;-42
2023/01/17 14:02:42;;;;;;;;;;;;;;;;;;5051165;28;1833;-43
2023/01/17 14:05:11;;;;;;;;;;;;;;;;;;5050886;28;2389;-44
2023/01/17 14:07:43;;;;;;;;;;;;;;;;;;5050938;28;1863;-41
2023/01/17 14:10:19;;;;;;;;;;;;;;;;;;5051049;28;1644;-46
2023/01/17 14:12:47;;;;;;;;;;;;;;;;;;5051013;28;1996;-42
2023/01/17 14:15:20;;;;;;;;;;;;;;;;;;5050649;28;1838;-45
2023/01/17 14:17:51;;;;;;;;;;;;;;;;;;5049483;28;1907;-42
2023/01/17 14:20:25;;;;;;;;;;;;;;;;;;5049683;28;1844;-42
2023/01/17 14:22:52;;;;;;;;;;;;;;;;;;5049419;28;1665;-44
2023/01/17 14:25:29;;;;;;;;;;;;;;;;;;5050711;28;2256;-42
2023/01/17 14:28:20;;;;;;;;;;;;;;;;;;5068295;28;1803;-43
2023/01/17 14:30:53;;;;;;;;;;;;;;;;;;5064822;28;1894;-42
2023/01/17 14:33:28;;;;;;;;;;;;;;;;;;5074240;28;2122;-43
2023/01/17 14:35:57;;;;;;;;;;;;;;;;;;5074637;28;2256;-46
2023/01/17 14:38:28;;;;;;;;;;;;;;;;;;5043705;28;11032;-44
2023/01/17 14:40:57;;;;;;;;;;;;;;;;;;5034556;28;1906;-43
2023/01/17 14:43:28;;;;;;;;;;;;;;;;;;5034790;28;1935;-42
2023/01/17 14:45:57;;;;;;;;;;;;;;;;;;5034286;28;2223;-45
2023/01/17 14:48:24;;;;;;;;;;;;;;;;;;5034586;28;2087;-43
2023/01/17 14:50:53;;;;;;;;;;;;;;;;;;5034459;28;1891;-43
2023/01/17 14:53:24;;;;;;;;;;;;;;;;;;5034645;28;2110;-43
2023/01/17 14:55:58;;;;;;;;;;;;;;;;;;5034169;28;1832;-45
2023/01/17 14:58:38;;;;;;;;;;;;;;;;;;5033998;28;1619;-42
2023/01/17 15:01:18;;;;;;;;;;;;;;;;;;5034168;28;2036;-42
2023/01/17 15:03:45;;;;;;;;;;;;;;;;;;5034389;28;1681;-43
2023/01/17 15:06:16;;;;;;;;;;;;;;;;;;5034276;28;1977;-44
2023/01/17 15:08:43;;;;;;;;;;;;;;;;;;5034063;28;2126;-42
2023/01/17 15:11:16;;;;;;;;;;;;;;;;;;5034109;28;1642;-47
2023/01/17 15:13:46;;;;;;;;;;;;;;;;;;5034014;28;1642;-44
2023/01/17 15:16:19;;;;;;;;;;;;;;;;;;5033957;28;2027;-43
2023/01/17 15:18:47;;;;;;;;;;;;;;;;;;5034144;28;2141;-42
2023/01/17 15:21:21;;;;;;;;;;;;;;;;;;5033764;28;2226;-43
2023/01/17 15:23:59;;;;;;;;;;;;;;;;;;5034006;28;1950;-45
2023/01/17 15:26:27;;;;;;;;;;;;;;;;;;5033679;28;1906;-46
2023/01/17 15:29:00;;;;;;;;;;;;;;;;;;5033782;28;2314;-43
2023/01/17 15:31:37;;;;;;;;;;;;;;;;;;5033580;28;1998;-43
2023/01/17 15:34:04;;;;;;;;;;;;;;;;;;5033601;28;1820;-42
2023/01/17 15:36:33;;;;;;;;;;;;;;;;;;5031378;28;2250;-42
2023/01/17 15:39:20;;;;;;;;;;;;;;;;;;5033211;28;1661;-44
2023/01/17 15:41:50;;;;;;;;;;;;;;;;;;5033650;28;1864;-43
2023/01/17 15:44:33;;;;;;;;;;;;;;;;;;5032723;28;1771;-45
2023/01/17 15:47:43;;;;;;;;;;;;;;;;;;5032310;28;2159;-43
2023/01/17 15:50:24;;;;;;;;;;;;;;;;;;5015219;28;2135;-44
2023/01/17 15:52:56;;;;;;;;;;;;;;;;;;5033694;28;1885;-44
2023/01/17 15:55:27;;;;;;;;;;;;;;;;;;5032999;28;2233;-41
2023/01/17 15:57:55;;;;;;;;;;;;;;;;;;5033231;28;2161;-44
2023/01/17 16:00:31;;;;;;;;;;;;;;;;;;5033362;28;2085;-45
2023/01/17 16:02:58;;;;;;;;;;;;;;;;;;5032902;28;1999;-43
2023/01/17 16:05:29;;;;;;;;;;;;;;;;;;5032894;28;1909;-43
2023/01/17 16:08:16;;;;;;;;;;;;;;;;;;5032901;28;1805;-45
2023/01/17 16:10:44;;;;;;;;;;;;;;;;;;5032771;28;2115;-42
2023/01/17 16:13:12;;;;;;;;;;;;;;;;;;5032919;28;2253;-45
2023/01/17 16:15:40;;;;;;;;;;;;;;;;;;5032606;28;1627;-44
2023/01/17 16:18:22;;;;;;;;;;;;;;;;;;5032634;28;2093;-43
2023/01/17 16:20:57;;;;;;;;;;;;;;;;;;5032758;28;1847;-42
2023/01/17 16:23:25;;;;;;;;;;;;;;;;;;5032652;28;1841;-42
2023/01/17 16:25:52;;;;;;;;;;;;;;;;;;5032122;28;2052;-43
2023/01/17 16:28:20;;;;;;;;;;;;;;;;;;5032648;28;2073;-43
2023/01/17 16:30:47;;;;;;;;;;;;;;;;;;5031894;28;1898;-43
2023/01/17 16:33:14;;;;;;;;;;;;;;;;;;5032399;28;1746;-42
2023/01/17 16:35:41;;;;;;;;;;;;;;;;;;5044759;28;2024;-43
2023/01/17 16:38:10;;;;;;;;;;;;;;;;;;5052103;28;1881;-42
2023/01/17 16:40:38;;;;;;;;;;;;;;;;;;5052381;28;1718;-42
2023/01/17 16:43:06;;;;;;;;;;;;;;;;;;5052243;28;1921;-42
2023/01/17 16:45:47;;;;;;;;;;;;;;;;;;5052572;28;1990;-44
2023/01/17 16:48:14;;;;;;;;;;;;;;;;;;5051789;28;1953;-43
2023/01/17 16:50:49;;;;;;;;;;;;;;;;;;5051606;28;1807;-41
2023/01/17 16:53:19;;;;;;;;;;;;;;;;;;5051626;28;1813;-45
2023/01/17 16:55:49;;;;;;;;;;;;;;;;;;5051660;28;2062;-46
2023/01/17 16:58:16;;;;;;;;;;;;;;;;;;5051683;28;1812;-45
2023/01/17 17:00:43;;;;;;;;;;;;;;;;;;5051609;28;1889;-42
2023/01/17 17:03:15;;;;;;;;;;;;;;;;;;5051137;28;1992;-44
2023/01/17 17:05:44;;;;;;;;;;;;;;;;;;5051540;28;2576;-47
2023/01/17 17:08:11;;;;;;;;;;;;;;;;;;5051551;28;1859;-43
2023/01/17 17:10:38;;;;;;;;;;;;;;;;;;5051234;28;1562;-42
2023/01/17 17:13:05;;;;;;;;;;;;;;;;;;5051295;28;1900;-43
2023/01/17 17:15:33;;;;;;;;;;;;;;;;;;5051336;28;1902;-44
2023/01/17 17:18:00;;;;;;;;;;;;;;;;;;5051025;28;1451;-42
2023/01/17 17:20:27;;;;;;;;;;;;;;;;;;5051368;28;2077;-44
2023/01/17 17:22:54;;;;;;;;;;;;;;;;;;5051731;28;2056;-44
2023/01/17 17:25:21;;;;;;;;;;;;;;;;;;5051249;28;1545;-44
2023/01/17 17:27:48;;;;;;;;;;;;;;;;;;5037623;28;2095;-43
2023/01/17 17:30:16;;;;;;;;;;;;;;;;;;5031219;28;2039;-43
2023/01/17 17:32:44;;;;;;;;;;;;;;;;;;5030570;28;1733;-43
2023/01/17 17:35:11;;;;;;;;;;;;;;;;;;5031123;28;1755;-46
2023/01/17 17:37:38;;;;;;;;;;;;;;;;;;5031075;28;1410;-43
2023/01/17 17:40:06;;;;;;;;;;;;;;;;;;5030979;28;2182;-45
2023/01/17 17:42:33;;;;;;;;;;;;;;;;;;5013693;28;2245;-46
2023/01/17 17:45:00;;;;;;;;;;;;;;;;;;5030492;28;2003;-43
2023/01/17 17:47:29;;;;;;;;;;;;;;;;;;5030942;28;2162;-45
2023/01/17 17:49:56;;;;;;;;;;;;;;;;;;5031236;28;1876;-44
2023/01/17 17:52:23;;;;;;;;;;;;;;;;;;5030531;28;2031;-42
2023/01/17 17:54:51;;;;;;;;;;;;;;;;;;5030847;28;1849;-43
2023/01/17 17:57:18;;;;;;;;;;;;;;;;;;5030680;28;1854;-42
2023/01/17 17:59:45;;;;;;;;;;;;;;;;;;5030128;28;2011;-43
2023/01/17 18:02:12;;;;;;;;;;;;;;;;;;5030757;28;1951;-45
2023/01/17 18:04:40;;;;;;;;;;;;;;;;;;5030779;28;1962;-44
2023/01/17 18:07:07;;;;;;;;;;;;;;;;;;5030671;28;2186;-44
2023/01/17 18:09:34;;;;;;;;;;;;;;;;;;5030661;28;2150;-46
2023/01/17 18:12:02;;;;;;;;;;;;;;;;;;5030817;28;1957;-44
2023/01/17 18:14:29;;;;;;;;;;;;;;;;;;5030862;28;1721;-45
2023/01/17 18:16:56;;;;;;;;;;;;;;;;;;5030810;28;1590;-43
2023/01/17 18:19:24;;;;;;;;;;;;;;;;;;5030628;28;2166;-43
2023/01/17 18:21:51;;;;;;;;;;;;;;;;;;5030250;28;1888;-43
2023/01/17 18:24:20;;;;;;;;;;;;;;;;;;5030587;28;1842;-44
2023/01/17 18:26:49;;;;;;;;;;;;;;;;;;5030354;28;1973;-44
2023/01/17 18:29:17;;;;;;;;;;;;;;;;;;5030468;28;1923;-41
2023/01/17 18:31:44;;;;;;;;;;;;;;;;;;5030417;28;1809;-45
2023/01/17 18:34:13;;;;;;;;;;;;;;;;;;5030559;28;1528;-43
2023/01/17 18:36:42;;;;;;;;;;;;;;;;;;5030257;28;2064;-45
2023/01/17 18:39:13;;;;;;;;;;;;;;;;;;5030348;28;1701;-44
2023/01/17 18:41:40;;;;;;;;;;;;;;;;;;5030470;28;1612;-45
2023/01/17 18:44:08;;;;;;;;;;;;;;;;;;5029388;28;1804;-43
2023/01/17 18:46:36;;;;;;;;;;;;;;;;;;5030433;28;2150;-41
2023/01/17 18:49:03;;;;;;;;;;;;;;;;;;5031104;28;1639;-46
2023/01/17 18:51:32;;;;;;;;;;;;;;;;;;5030796;28;1385;-44
2023/01/17 18:54:02;;;;;;;;;;;;;;;;;;5030591;28;2076;-46